KLM787 EHAM-TNCM
Flight info
| Callsign | KLM787 |
|---|---|
| Flight time | N/A |
| Altitude | 36000 |
| Route | BERGI L60 PENIL M144 BAGSO DCT LIMRI/M081F380 DCT 51N020W 49N030W 44N040W 34N050W/M081F400 27N056W 22N060W DCT OBIKE/N0464F400 L335 TRNKY |
| Aircraft | A332/H-SDE3GHIJ2J3J5M1RVWXY/LB2D1 |
Departure
| Time | N/A |
|---|---|
| Airport | Amsterdam Airport Schiphol (EHAM) |
Arrival
| Time | 2026-05-01 11:34 |
|---|---|
| Airport | Princess Juliana International Airport (TNCM) |
| Time | Latitude | Longitude | Altitude | Speed | Heading |
|---|---|---|---|---|---|
| 2026-05-01 07:23 | 41.46337 | -42.91060 | 38150 ft | 447 kts | 219° |
| 2026-05-01 07:24 | 41.39102 | -42.98908 | 38149 ft | 447 kts | 220° |
| 2026-05-01 07:24 | 41.34279 | -43.04128 | 38147 ft | 447 kts | 219° |
| 2026-05-01 07:25 | 41.29452 | -43.09338 | 38146 ft | 447 kts | 219° |
| 2026-05-01 07:25 | 41.24624 | -43.14542 | 38146 ft | 445 kts | 219° |
| 2026-05-01 07:26 | 41.19884 | -43.19639 | 38144 ft | 438 kts | 219° |
| 2026-05-01 07:26 | 41.15153 | -43.24718 | 38138 ft | 437 kts | 219° |
| 2026-05-01 07:27 | 41.10415 | -43.29797 | 38150 ft | 438 kts | 219° |
| 2026-05-01 07:27 | 41.05667 | -43.34873 | 38137 ft | 438 kts | 219° |
| 2026-05-01 07:28 | 41.00927 | -43.39929 | 38150 ft | 437 kts | 219° |
| 2026-05-01 07:28 | 40.96179 | -43.44990 | 38153 ft | 437 kts | 219° |
| 2026-05-01 07:29 | 40.91464 | -43.50007 | 38151 ft | 437 kts | 219° |
| 2026-05-01 07:29 | 40.86710 | -43.55051 | 38150 ft | 437 kts | 219° |
| 2026-05-01 07:30 | 40.81962 | -43.60079 | 38146 ft | 437 kts | 219° |
| 2026-05-01 07:30 | 40.77201 | -43.65110 | 38137 ft | 438 kts | 219° |
| 2026-05-01 07:31 | 40.72479 | -43.70093 | 38152 ft | 437 kts | 219° |
| 2026-05-01 07:32 | 40.60587 | -43.82603 | 38147 ft | 437 kts | 219° |
| 2026-05-01 07:33 | 40.53457 | -43.90074 | 38145 ft | 437 kts | 219° |
| 2026-05-01 07:33 | 40.46322 | -43.97533 | 38151 ft | 437 kts | 219° |
| 2026-05-01 07:34 | 40.39210 | -44.04946 | 38143 ft | 437 kts | 219° |
| 2026-05-01 07:35 | 40.34445 | -44.09904 | 38146 ft | 437 kts | 219° |
| 2026-05-01 07:35 | 40.29682 | -44.14848 | 38144 ft | 437 kts | 219° |
| 2026-05-01 07:36 | 40.24913 | -44.19792 | 38137 ft | 437 kts | 219° |
| 2026-05-01 07:36 | 40.20144 | -44.24719 | 38138 ft | 436 kts | 219° |
| 2026-05-01 07:37 | 40.12983 | -44.32099 | 38114 ft | 437 kts | 219° |
| 2026-05-01 07:37 | 40.08206 | -44.37013 | 38112 ft | 436 kts | 219° |
| 2026-05-01 07:38 | 40.03431 | -44.41917 | 38110 ft | 436 kts | 219° |
| 2026-05-01 07:39 | 39.96294 | -44.49234 | 38113 ft | 437 kts | 219° |
| 2026-05-01 07:39 | 39.89118 | -44.56569 | 38112 ft | 437 kts | 219° |
| 2026-05-01 07:40 | 39.84316 | -44.61467 | 38111 ft | 438 kts | 219° |
| 2026-05-01 07:40 | 39.79522 | -44.66347 | 38113 ft | 438 kts | 219° |
| 2026-05-01 07:41 | 39.74723 | -44.71225 | 38109 ft | 438 kts | 219° |
| 2026-05-01 07:42 | 39.67552 | -44.78497 | 38110 ft | 438 kts | 219° |
| 2026-05-01 07:42 | 39.62742 | -44.83363 | 38110 ft | 438 kts | 219° |
| 2026-05-01 07:43 | 39.57927 | -44.88223 | 38119 ft | 438 kts | 219° |
| 2026-05-01 07:43 | 39.50694 | -44.95508 | 38119 ft | 439 kts | 219° |
| 2026-05-01 07:44 | 39.41042 | -45.05197 | 38120 ft | 439 kts | 219° |
| 2026-05-01 07:45 | 39.36214 | -45.10036 | 38119 ft | 439 kts | 219° |
| 2026-05-01 07:45 | 39.31381 | -45.14868 | 38119 ft | 439 kts | 219° |
| 2026-05-01 07:46 | 39.26573 | -45.19667 | 38119 ft | 439 kts | 219° |
| 2026-05-01 07:47 | 39.19312 | -45.26897 | 38119 ft | 440 kts | 219° |
| 2026-05-01 07:47 | 39.14462 | -45.31713 | 38119 ft | 440 kts | 219° |
| 2026-05-01 07:48 | 39.07186 | -45.38925 | 38119 ft | 440 kts | 219° |
| 2026-05-01 07:48 | 39.02328 | -45.43731 | 38120 ft | 441 kts | 219° |
| 2026-05-01 07:49 | 38.95028 | -45.50932 | 38119 ft | 441 kts | 219° |
| 2026-05-01 07:50 | 38.90191 | -45.55695 | 38118 ft | 440 kts | 219° |
| 2026-05-01 07:50 | 38.82879 | -45.62874 | 38118 ft | 441 kts | 219° |
| 2026-05-01 07:51 | 38.78006 | -45.67653 | 38119 ft | 442 kts | 219° |
| 2026-05-01 07:52 | 38.70677 | -45.74823 | 38133 ft | 441 kts | 219° |
| 2026-05-01 07:52 | 38.65824 | -45.79563 | 38133 ft | 442 kts | 219° |
| 2026-05-01 07:53 | 38.58479 | -45.86709 | 38132 ft | 442 kts | 219° |
| 2026-05-01 07:53 | 38.53582 | -45.91467 | 38151 ft | 442 kts | 219° |
| 2026-05-01 07:55 | 38.41327 | -46.03345 | 38128 ft | 442 kts | 219° |
| 2026-05-01 07:56 | 38.29079 | -46.15159 | 38128 ft | 443 kts | 218° |
| 2026-05-01 07:57 | 38.21699 | -46.22250 | 38128 ft | 443 kts | 218° |
| 2026-05-01 07:58 | 38.11852 | -46.31684 | 38128 ft | 443 kts | 219° |
| 2026-05-01 07:59 | 38.02002 | -46.41093 | 38129 ft | 443 kts | 218° |
| 2026-05-01 08:00 | 37.87239 | -46.55131 | 38128 ft | 443 kts | 218° |
| 2026-05-01 08:01 | 37.77358 | -46.64485 | 38130 ft | 443 kts | 218° |
| 2026-05-01 08:02 | 37.69973 | -46.71459 | 38129 ft | 443 kts | 218° |
| 2026-05-01 08:03 | 37.62562 | -46.78435 | 38128 ft | 443 kts | 218° |
| 2026-05-01 08:03 | 37.55138 | -46.85407 | 38121 ft | 443 kts | 218° |
| 2026-05-01 08:04 | 37.45271 | -46.94644 | 38119 ft | 443 kts | 218° |
| 2026-05-01 08:05 | 37.37851 | -47.01571 | 38120 ft | 443 kts | 218° |
| 2026-05-01 08:06 | 37.30417 | -47.08496 | 38119 ft | 443 kts | 218° |
| 2026-05-01 08:07 | 37.20495 | -47.17712 | 38119 ft | 443 kts | 218° |
| 2026-05-01 08:08 | 37.13089 | -47.24566 | 38119 ft | 443 kts | 218° |
| 2026-05-01 08:09 | 37.03179 | -47.33718 | 38119 ft | 443 kts | 218° |
| 2026-05-01 08:09 | 36.98214 | -47.38288 | 38120 ft | 443 kts | 218° |
| 2026-05-01 08:10 | 36.88280 | -47.47408 | 38118 ft | 443 kts | 218° |
| 2026-05-01 08:11 | 36.78341 | -47.56512 | 38112 ft | 443 kts | 218° |
| 2026-05-01 08:12 | 36.71723 | -47.62550 | 38107 ft | 443 kts | 218° |
| 2026-05-01 08:13 | 36.64265 | -47.69343 | 38108 ft | 443 kts | 218° |
| 2026-05-01 08:13 | 36.56822 | -47.76108 | 38112 ft | 443 kts | 217° |
| 2026-05-01 08:14 | 36.51832 | -47.80625 | 38111 ft | 443 kts | 218° |
| 2026-05-01 08:14 | 36.46850 | -47.85139 | 38106 ft | 443 kts | 218° |
| 2026-05-01 08:15 | 36.39366 | -47.91906 | 38110 ft | 443 kts | 218° |
| 2026-05-01 08:16 | 36.34376 | -47.96404 | 38106 ft | 443 kts | 218° |
| 2026-05-01 08:16 | 36.29387 | -48.00898 | 38110 ft | 443 kts | 218° |
| 2026-05-01 08:17 | 36.24396 | -48.05385 | 38111 ft | 443 kts | 218° |
| 2026-05-01 08:17 | 36.19432 | -48.09837 | 38105 ft | 442 kts | 217° |
| 2026-05-01 08:18 | 36.14444 | -48.14305 | 38102 ft | 443 kts | 217° |
| 2026-05-01 08:19 | 36.04447 | -48.23241 | 38103 ft | 443 kts | 217° |
| 2026-05-01 08:19 | 35.99445 | -48.27700 | 38101 ft | 443 kts | 217° |
| 2026-05-01 08:20 | 35.94439 | -48.32156 | 38101 ft | 443 kts | 217° |
| 2026-05-01 08:20 | 35.89436 | -48.36607 | 38102 ft | 443 kts | 217° |
| 2026-05-01 08:21 | 35.84425 | -48.41052 | 38100 ft | 443 kts | 217° |
| 2026-05-01 08:21 | 35.79457 | -48.45451 | 38097 ft | 443 kts | 217° |
| 2026-05-01 08:22 | 35.74449 | -48.49881 | 38103 ft | 443 kts | 217° |
| 2026-05-01 08:22 | 35.69437 | -48.54310 | 38100 ft | 443 kts | 217° |
| 2026-05-01 08:23 | 35.64433 | -48.58720 | 38102 ft | 443 kts | 217° |
| 2026-05-01 08:23 | 35.59428 | -48.63125 | 38099 ft | 442 kts | 218° |
| 2026-05-01 08:24 | 35.54423 | -48.67524 | 38098 ft | 442 kts | 218° |
| 2026-05-01 08:24 | 35.49415 | -48.71921 | 38099 ft | 442 kts | 218° |
| 2026-05-01 08:25 | 35.44406 | -48.76305 | 38092 ft | 442 kts | 218° |
| 2026-05-01 08:25 | 35.39404 | -48.80679 | 38085 ft | 442 kts | 218° |
| 2026-05-01 08:26 | 35.34435 | -48.85023 | 38093 ft | 441 kts | 218° |
| 2026-05-01 08:26 | 35.29429 | -48.89392 | 38095 ft | 441 kts | 218° |
| 2026-05-01 08:27 | 35.24417 | -48.93757 | 38089 ft | 442 kts | 218° |
| 2026-05-01 08:27 | 35.19402 | -48.98111 | 38094 ft | 442 kts | 218° |
| 2026-05-01 08:28 | 35.14391 | -49.02465 | 38091 ft | 441 kts | 218° |
| 2026-05-01 08:28 | 35.09373 | -49.06818 | 38092 ft | 442 kts | 218° |
| 2026-05-01 08:29 | 35.04392 | -49.11131 | 38078 ft | 442 kts | 218° |
| 2026-05-01 08:29 | 34.99349 | -49.15485 | 38073 ft | 441 kts | 218° |
| 2026-05-01 08:30 | 34.94364 | -49.19787 | 38073 ft | 441 kts | 218° |
| 2026-05-01 08:30 | 34.89348 | -49.24107 | 38073 ft | 441 kts | 218° |
| 2026-05-01 08:31 | 34.84326 | -49.28424 | 38073 ft | 442 kts | 218° |
| 2026-05-01 08:31 | 34.79304 | -49.32737 | 38073 ft | 442 kts | 218° |
| 2026-05-01 08:32 | 34.74284 | -49.37041 | 38073 ft | 442 kts | 218° |
| 2026-05-01 08:32 | 34.69283 | -49.41324 | 38073 ft | 442 kts | 218° |
| 2026-05-01 08:33 | 34.64256 | -49.45618 | 38073 ft | 442 kts | 218° |
| 2026-05-01 08:33 | 34.59230 | -49.49912 | 38064 ft | 442 kts | 218° |
| 2026-05-01 08:34 | 34.54205 | -49.54197 | 38063 ft | 442 kts | 218° |
| 2026-05-01 08:34 | 34.49163 | -49.58488 | 38064 ft | 442 kts | 218° |
| 2026-05-01 08:35 | 34.44129 | -49.62764 | 38063 ft | 442 kts | 218° |
| 2026-05-01 08:35 | 34.39090 | -49.67038 | 38063 ft | 442 kts | 218° |
| 2026-05-01 08:36 | 34.34087 | -49.71279 | 38063 ft | 442 kts | 218° |
| 2026-05-01 08:36 | 34.29050 | -49.75542 | 38064 ft | 442 kts | 218° |
| 2026-05-01 08:37 | 34.24004 | -49.79805 | 38063 ft | 442 kts | 218° |
| 2026-05-01 08:37 | 34.18948 | -49.84067 | 38064 ft | 442 kts | 218° |
| 2026-05-01 08:38 | 34.13897 | -49.88324 | 38064 ft | 442 kts | 218° |
| 2026-05-01 08:38 | 34.08849 | -49.92569 | 38054 ft | 442 kts | 218° |
| 2026-05-01 08:39 | 34.03793 | -49.96815 | 38055 ft | 442 kts | 218° |
| 2026-05-01 08:39 | 33.98764 | -50.01098 | 38064 ft | 442 kts | 220° |
| 2026-05-01 08:40 | 33.91540 | -50.07876 | 38063 ft | 440 kts | 222° |
| 2026-05-01 08:40 | 33.86734 | -50.12456 | 38063 ft | 441 kts | 222° |
| 2026-05-01 08:41 | 33.81907 | -50.17010 | 38059 ft | 441 kts | 221° |
| 2026-05-01 08:41 | 33.77069 | -50.21548 | 38055 ft | 441 kts | 221° |
| 2026-05-01 08:42 | 33.72228 | -50.26073 | 38054 ft | 441 kts | 221° |
| 2026-05-01 08:42 | 33.67378 | -50.30602 | 38006 ft | 441 kts | 221° |
| 2026-05-01 08:43 | 33.62540 | -50.35115 | 37963 ft | 440 kts | 221° |
| 2026-05-01 08:43 | 33.57706 | -50.39619 | 37968 ft | 440 kts | 221° |
| 2026-05-01 08:44 | 33.52868 | -50.44120 | 37962 ft | 440 kts | 221° |
| 2026-05-01 08:44 | 33.48030 | -50.48612 | 37960 ft | 440 kts | 221° |
| 2026-05-01 08:45 | 33.43188 | -50.53102 | 37959 ft | 440 kts | 222° |
| 2026-05-01 08:45 | 33.38379 | -50.57560 | 37957 ft | 439 kts | 221° |
| 2026-05-01 08:46 | 33.33540 | -50.62033 | 37964 ft | 439 kts | 222° |
| 2026-05-01 08:46 | 33.28705 | -50.66494 | 37958 ft | 439 kts | 222° |
| 2026-05-01 08:47 | 33.23869 | -50.70957 | 37963 ft | 439 kts | 222° |
| 2026-05-01 08:47 | 33.19031 | -50.75412 | 37954 ft | 439 kts | 222° |
| 2026-05-01 08:48 | 33.14190 | -50.79865 | 37966 ft | 439 kts | 222° |
| 2026-05-01 08:48 | 33.09350 | -50.84311 | 37948 ft | 439 kts | 222° |
| 2026-05-01 08:49 | 33.04510 | -50.88750 | 37940 ft | 439 kts | 222° |
| 2026-05-01 08:49 | 32.99698 | -50.93156 | 37938 ft | 438 kts | 222° |
| 2026-05-01 08:50 | 32.94878 | -50.97560 | 37943 ft | 435 kts | 222° |
| 2026-05-01 08:50 | 32.90071 | -51.01947 | 37941 ft | 434 kts | 222° |
| 2026-05-01 08:51 | 32.85279 | -51.06316 | 37938 ft | 434 kts | 222° |
| 2026-05-01 08:51 | 32.80476 | -51.10688 | 37942 ft | 434 kts | 222° |
| 2026-05-01 08:52 | 32.75676 | -51.15049 | 37938 ft | 434 kts | 222° |
| 2026-05-01 08:52 | 32.70877 | -51.19407 | 37939 ft | 434 kts | 222° |
| 2026-05-01 08:53 | 32.66112 | -51.23730 | 37943 ft | 434 kts | 222° |
| 2026-05-01 08:53 | 32.61317 | -51.28072 | 37942 ft | 433 kts | 222° |
| 2026-05-01 08:54 | 32.56529 | -51.32403 | 37946 ft | 433 kts | 222° |
| 2026-05-01 08:54 | 32.51732 | -51.36735 | 37942 ft | 433 kts | 222° |
| 2026-05-01 08:55 | 32.46938 | -51.41060 | 37940 ft | 432 kts | 222° |
| 2026-05-01 08:55 | 32.42153 | -51.45367 | 37949 ft | 432 kts | 221° |
| 2026-05-01 08:56 | 32.37397 | -51.49643 | 37942 ft | 432 kts | 221° |
| 2026-05-01 08:56 | 32.32610 | -51.53941 | 37948 ft | 432 kts | 221° |
| 2026-05-01 08:57 | 32.27826 | -51.58231 | 37943 ft | 431 kts | 221° |
| 2026-05-01 08:57 | 32.23045 | -51.62513 | 37942 ft | 431 kts | 221° |
| 2026-05-01 08:58 | 32.18269 | -51.66786 | 37949 ft | 431 kts | 221° |
| 2026-05-01 08:58 | 32.13486 | -51.71057 | 37937 ft | 431 kts | 221° |
| 2026-05-01 08:59 | 32.08730 | -51.75297 | 37936 ft | 430 kts | 221° |
| 2026-05-01 08:59 | 32.03954 | -51.79551 | 37939 ft | 430 kts | 221° |
| 2026-05-01 09:00 | 31.99985 | -51.83081 | 37936 ft | 430 kts | 221° |
| 2026-05-01 09:00 | 31.95214 | -51.87320 | 37925 ft | 430 kts | 221° |
| 2026-05-01 09:01 | 31.90433 | -51.91569 | 37927 ft | 430 kts | 221° |
| 2026-05-01 09:01 | 31.85658 | -51.95800 | 37926 ft | 430 kts | 221° |
| 2026-05-01 09:02 | 31.80881 | -52.00028 | 37924 ft | 429 kts | 221° |
| 2026-05-01 09:02 | 31.76102 | -52.04250 | 37929 ft | 430 kts | 221° |
| 2026-05-01 09:03 | 31.71351 | -52.08444 | 37924 ft | 429 kts | 221° |
| 2026-05-01 09:03 | 31.66570 | -52.12660 | 37924 ft | 430 kts | 221° |
| 2026-05-01 09:04 | 31.61784 | -52.16874 | 37923 ft | 429 kts | 221° |
| 2026-05-01 09:04 | 31.57006 | -52.21074 | 37925 ft | 429 kts | 221° |
| 2026-05-01 09:05 | 31.52217 | -52.25276 | 37926 ft | 430 kts | 221° |
| 2026-05-01 09:05 | 31.47427 | -52.29475 | 37923 ft | 430 kts | 221° |
| 2026-05-01 09:06 | 31.42663 | -52.33647 | 37927 ft | 429 kts | 221° |
| 2026-05-01 09:06 | 31.37879 | -52.37833 | 37928 ft | 429 kts | 221° |
| 2026-05-01 09:07 | 31.33091 | -52.42014 | 37928 ft | 429 kts | 221° |
| 2026-05-01 09:07 | 31.28299 | -52.46191 | 37923 ft | 429 kts | 221° |
| 2026-05-01 09:08 | 31.23502 | -52.50375 | 37915 ft | 430 kts | 221° |
| 2026-05-01 09:08 | 31.18712 | -52.54541 | 37915 ft | 429 kts | 221° |
| 2026-05-01 09:09 | 31.13949 | -52.58681 | 37916 ft | 429 kts | 221° |
| 2026-05-01 09:09 | 31.09155 | -52.62844 | 37915 ft | 430 kts | 220° |
| 2026-05-01 09:10 | 31.04352 | -52.67008 | 37915 ft | 430 kts | 220° |
| 2026-05-01 09:10 | 30.99545 | -52.71169 | 37915 ft | 430 kts | 220° |
| 2026-05-01 09:11 | 30.94731 | -52.75331 | 37957 ft | 430 kts | 220° |
| 2026-05-01 09:11 | 30.89952 | -52.79455 | 37958 ft | 430 kts | 220° |
| 2026-05-01 09:12 | 30.85142 | -52.83604 | 37978 ft | 430 kts | 220° |
| 2026-05-01 09:12 | 30.80324 | -52.87752 | 37963 ft | 431 kts | 220° |
| 2026-05-01 09:13 | 30.75511 | -52.91890 | 37976 ft | 430 kts | 220° |
| 2026-05-01 09:13 | 30.70693 | -52.96029 | 37977 ft | 431 kts | 220° |
| 2026-05-01 09:14 | 30.65873 | -53.00165 | 37961 ft | 431 kts | 220° |
| 2026-05-01 09:14 | 30.61048 | -53.04297 | 37978 ft | 431 kts | 220° |
| 2026-05-01 09:15 | 30.56228 | -53.08422 | 37958 ft | 430 kts | 220° |
| 2026-05-01 09:15 | 30.51404 | -53.12547 | 37958 ft | 430 kts | 220° |
| 2026-05-01 09:16 | 30.46607 | -53.16642 | 37960 ft | 430 kts | 220° |
| 2026-05-01 09:17 | 30.39364 | -53.22812 | 37954 ft | 431 kts | 220° |
| 2026-05-01 09:17 | 30.32115 | -53.28980 | 37968 ft | 430 kts | 220° |
| 2026-05-01 09:18 | 30.24901 | -53.35102 | 37959 ft | 430 kts | 220° |
| 2026-05-01 09:19 | 30.17651 | -53.41249 | 37957 ft | 430 kts | 220° |
| 2026-05-01 09:20 | 30.10407 | -53.47376 | 37964 ft | 430 kts | 220° |
| 2026-05-01 09:21 | 30.00773 | -53.55509 | 37965 ft | 430 kts | 220° |
| 2026-05-01 09:21 | 29.93518 | -53.61619 | 37962 ft | 431 kts | 219° |
| 2026-05-01 09:22 | 29.83830 | -53.69761 | 37971 ft | 431 kts | 219° |
| 2026-05-01 09:23 | 29.76590 | -53.75834 | 37960 ft | 431 kts | 219° |
| 2026-05-01 09:24 | 29.69313 | -53.81921 | 37959 ft | 431 kts | 219° |
| 2026-05-01 09:25 | 29.59616 | -53.90019 | 37951 ft | 431 kts | 219° |
| 2026-05-01 09:26 | 29.52334 | -53.96090 | 37958 ft | 431 kts | 219° |
| 2026-05-01 09:26 | 29.45043 | -54.02158 | 37946 ft | 431 kts | 219° |
| 2026-05-01 09:27 | 29.37786 | -54.08190 | 37950 ft | 431 kts | 219° |
| 2026-05-01 09:28 | 29.32923 | -54.12223 | 37957 ft | 432 kts | 219° |
| 2026-05-01 09:28 | 29.28052 | -54.16257 | 37948 ft | 432 kts | 219° |
| 2026-05-01 09:29 | 29.20742 | -54.22300 | 37959 ft | 432 kts | 219° |
| 2026-05-01 09:30 | 29.13426 | -54.28340 | 37958 ft | 432 kts | 219° |
| 2026-05-01 09:30 | 29.06134 | -54.34350 | 37956 ft | 432 kts | 219° |
| 2026-05-01 09:31 | 29.01249 | -54.38374 | 37961 ft | 432 kts | 219° |
| 2026-05-01 09:32 | 28.93919 | -54.44392 | 37951 ft | 433 kts | 219° |
| 2026-05-01 09:32 | 28.86579 | -54.50411 | 37960 ft | 433 kts | 219° |
| 2026-05-01 09:33 | 28.81678 | -54.54423 | 37948 ft | 433 kts | 219° |
| 2026-05-01 09:34 | 28.74366 | -54.60407 | 37954 ft | 433 kts | 219° |
| 2026-05-01 09:34 | 28.67012 | -54.66407 | 37951 ft | 433 kts | 219° |
| 2026-05-01 09:35 | 28.59653 | -54.72406 | 37959 ft | 434 kts | 219° |
| 2026-05-01 09:36 | 28.54772 | -54.76374 | 37958 ft | 434 kts | 219° |
| 2026-05-01 09:36 | 28.49865 | -54.80361 | 37940 ft | 434 kts | 219° |
| 2026-05-01 09:37 | 28.44956 | -54.84348 | 37938 ft | 434 kts | 219° |
| 2026-05-01 09:37 | 28.37582 | -54.90327 | 37940 ft | 434 kts | 219° |
| 2026-05-01 09:38 | 28.30206 | -54.96291 | 37945 ft | 434 kts | 219° |
| 2026-05-01 09:39 | 28.22827 | -55.02253 | 37950 ft | 434 kts | 218° |
| 2026-05-01 09:39 | 28.17896 | -55.06229 | 37940 ft | 435 kts | 218° |
| 2026-05-01 09:40 | 28.10509 | -55.12178 | 37940 ft | 434 kts | 218° |
| 2026-05-01 09:41 | 28.05618 | -55.16115 | 37941 ft | 434 kts | 218° |
| 2026-05-01 09:41 | 27.98226 | -55.22050 | 37940 ft | 434 kts | 218° |
| 2026-05-01 09:42 | 27.93294 | -55.26005 | 37940 ft | 435 kts | 218° |
| 2026-05-01 09:43 | 27.83415 | -55.33914 | 37939 ft | 435 kts | 218° |
| 2026-05-01 09:43 | 27.78475 | -55.37860 | 37946 ft | 435 kts | 218° |
| 2026-05-01 09:44 | 27.71065 | -55.43776 | 37947 ft | 435 kts | 218° |
| 2026-05-01 09:45 | 27.66121 | -55.47716 | 37942 ft | 435 kts | 218° |
| 2026-05-01 09:45 | 27.58734 | -55.53597 | 37943 ft | 435 kts | 218° |
| 2026-05-01 09:46 | 27.53796 | -55.57522 | 37939 ft | 435 kts | 218° |
| 2026-05-01 09:46 | 27.48847 | -55.61452 | 37944 ft | 435 kts | 218° |
| 2026-05-01 09:47 | 27.43892 | -55.65380 | 37947 ft | 436 kts | 218° |
| 2026-05-01 09:47 | 27.38936 | -55.69308 | 37945 ft | 436 kts | 218° |
| 2026-05-01 09:48 | 27.33977 | -55.73235 | 37947 ft | 435 kts | 218° |
| 2026-05-01 09:48 | 27.29047 | -55.77127 | 37942 ft | 435 kts | 218° |
| 2026-05-01 09:49 | 27.24086 | -55.81041 | 37938 ft | 435 kts | 218° |
| 2026-05-01 09:49 | 27.19128 | -55.84947 | 37948 ft | 435 kts | 218° |
| 2026-05-01 09:50 | 27.14168 | -55.88854 | 37947 ft | 435 kts | 218° |
| 2026-05-01 09:50 | 27.09208 | -55.92760 | 37938 ft | 435 kts | 218° |
| 2026-05-01 09:51 | 27.05083 | -55.96006 | 37939 ft | 435 kts | 218° |
| 2026-05-01 09:51 | 27.00125 | -55.99905 | 37945 ft | 435 kts | 218° |
| 2026-05-01 09:52 | 26.95249 | -56.03931 | 37946 ft | 434 kts | 220° |
| 2026-05-01 09:52 | 26.90460 | -56.07994 | 37944 ft | 435 kts | 220° |
| 2026-05-01 09:53 | 26.85631 | -56.12081 | 37944 ft | 435 kts | 220° |
| 2026-05-01 09:53 | 26.80790 | -56.16152 | 37940 ft | 435 kts | 219° |
| 2026-05-01 09:54 | 26.75945 | -56.20212 | 37942 ft | 435 kts | 219° |
| 2026-05-01 09:54 | 26.71106 | -56.24266 | 37934 ft | 435 kts | 219° |
| 2026-05-01 09:55 | 26.66271 | -56.28310 | 37937 ft | 435 kts | 219° |
| 2026-05-01 09:55 | 26.61420 | -56.32368 | 37937 ft | 435 kts | 219° |
| 2026-05-01 09:56 | 26.56574 | -56.36414 | 37935 ft | 435 kts | 219° |
| 2026-05-01 09:56 | 26.51722 | -56.40461 | 37937 ft | 435 kts | 219° |
| 2026-05-01 09:57 | 26.46870 | -56.44505 | 37935 ft | 435 kts | 219° |
| 2026-05-01 09:57 | 26.42044 | -56.48521 | 37931 ft | 435 kts | 219° |
| 2026-05-01 09:58 | 26.37188 | -56.52558 | 37937 ft | 435 kts | 219° |
| 2026-05-01 09:58 | 26.32328 | -56.56593 | 37937 ft | 435 kts | 219° |
| 2026-05-01 09:59 | 26.27465 | -56.60629 | 37945 ft | 435 kts | 219° |
| 2026-05-01 09:59 | 26.22610 | -56.64652 | 37950 ft | 435 kts | 219° |
| 2026-05-01 10:00 | 26.17749 | -56.68676 | 37953 ft | 435 kts | 219° |
| 2026-05-01 10:00 | 26.12877 | -56.72708 | 37948 ft | 435 kts | 219° |
| 2026-05-01 10:01 | 26.08045 | -56.76700 | 37959 ft | 435 kts | 219° |
| 2026-05-01 10:01 | 26.03184 | -56.80717 | 37949 ft | 435 kts | 219° |
| 2026-05-01 10:02 | 25.98316 | -56.84725 | 37957 ft | 435 kts | 219° |
| 2026-05-01 10:02 | 25.93447 | -56.88733 | 37948 ft | 434 kts | 219° |
| 2026-05-01 10:03 | 25.88618 | -56.92704 | 37949 ft | 434 kts | 219° |
| 2026-05-01 10:03 | 25.83760 | -56.96696 | 37953 ft | 434 kts | 219° |
| 2026-05-01 10:04 | 25.78903 | -57.00685 | 37956 ft | 434 kts | 219° |
| 2026-05-01 10:04 | 25.74041 | -57.04674 | 37950 ft | 434 kts | 219° |
| 2026-05-01 10:05 | 25.69180 | -57.08655 | 37950 ft | 434 kts | 219° |
| 2026-05-01 10:05 | 25.64349 | -57.12609 | 37949 ft | 434 kts | 219° |
| 2026-05-01 10:06 | 25.59485 | -57.16582 | 37948 ft | 435 kts | 219° |
| 2026-05-01 10:06 | 25.54619 | -57.20555 | 37950 ft | 434 kts | 219° |
| 2026-05-01 10:07 | 25.49747 | -57.24534 | 37961 ft | 434 kts | 219° |
| 2026-05-01 10:07 | 25.44871 | -57.28506 | 37952 ft | 434 kts | 219° |
| 2026-05-01 10:08 | 25.37608 | -57.34416 | 37958 ft | 434 kts | 219° |
| 2026-05-01 10:09 | 25.32734 | -57.38380 | 37958 ft | 435 kts | 219° |
| 2026-05-01 10:09 | 25.27863 | -57.42335 | 37961 ft | 434 kts | 219° |
| 2026-05-01 10:10 | 25.22978 | -57.46293 | 37953 ft | 434 kts | 219° |
| 2026-05-01 10:10 | 25.15714 | -57.52182 | 37946 ft | 434 kts | 219° |
| 2026-05-01 10:11 | 25.10843 | -57.56122 | 37956 ft | 434 kts | 219° |
| 2026-05-01 10:11 | 25.05967 | -57.60066 | 37951 ft | 434 kts | 219° |
| 2026-05-01 10:12 | 25.01093 | -57.64005 | 37948 ft | 434 kts | 219° |
| 2026-05-01 10:13 | 24.93778 | -57.69898 | 37956 ft | 434 kts | 219° |
| 2026-05-01 10:13 | 24.88912 | -57.73817 | 37948 ft | 433 kts | 219° |
| 2026-05-01 10:14 | 24.81609 | -57.79697 | 37948 ft | 433 kts | 219° |
| 2026-05-01 10:14 | 24.76740 | -57.83610 | 37954 ft | 433 kts | 219° |
| 2026-05-01 10:15 | 24.71902 | -57.87489 | 37955 ft | 433 kts | 219° |
| 2026-05-01 10:15 | 24.67037 | -57.91394 | 37948 ft | 433 kts | 219° |
| 2026-05-01 10:16 | 24.62168 | -57.95298 | 37946 ft | 432 kts | 219° |
| 2026-05-01 10:17 | 24.54882 | -58.01126 | 37956 ft | 432 kts | 219° |
| 2026-05-01 10:17 | 24.47582 | -58.06959 | 37956 ft | 432 kts | 219° |
| 2026-05-01 10:18 | 24.40285 | -58.12780 | 37953 ft | 432 kts | 219° |
| 2026-05-01 10:19 | 24.35416 | -58.16662 | 37950 ft | 432 kts | 219° |
| 2026-05-01 10:19 | 24.30575 | -58.20515 | 37959 ft | 432 kts | 219° |
| 2026-05-01 10:20 | 24.23269 | -58.26326 | 37952 ft | 432 kts | 218° |
| 2026-05-01 10:20 | 24.18392 | -58.30199 | 37949 ft | 432 kts | 218° |
| 2026-05-01 10:21 | 24.11124 | -58.35961 | 37955 ft | 432 kts | 218° |
| 2026-05-01 10:22 | 24.03811 | -58.41754 | 37952 ft | 432 kts | 218° |
| 2026-05-01 10:23 | 23.96504 | -58.47534 | 37952 ft | 432 kts | 218° |
| 2026-05-01 10:23 | 23.89199 | -58.53302 | 37958 ft | 432 kts | 218° |
| 2026-05-01 10:24 | 23.79486 | -58.60958 | 37950 ft | 431 kts | 218° |
| 2026-05-01 10:25 | 23.69759 | -58.68620 | 37949 ft | 431 kts | 218° |
| 2026-05-01 10:26 | 23.64888 | -58.72448 | 37957 ft | 431 kts | 218° |
| 2026-05-01 10:27 | 23.55163 | -58.80078 | 37951 ft | 430 kts | 218° |
| 2026-05-01 10:28 | 23.47863 | -58.85798 | 37961 ft | 431 kts | 218° |
| 2026-05-01 10:28 | 23.40563 | -58.91510 | 37957 ft | 431 kts | 218° |
| 2026-05-01 10:29 | 23.33298 | -58.97183 | 37961 ft | 430 kts | 218° |
| 2026-05-01 10:30 | 23.23552 | -59.04787 | 37969 ft | 430 kts | 218° |
| 2026-05-01 10:31 | 23.13852 | -59.12342 | 37962 ft | 430 kts | 218° |
| 2026-05-01 10:32 | 23.06549 | -59.18017 | 37960 ft | 430 kts | 218° |
| 2026-05-01 10:33 | 22.96815 | -59.25575 | 37957 ft | 430 kts | 218° |
| 2026-05-01 10:34 | 22.89541 | -59.31211 | 37961 ft | 430 kts | 218° |
| 2026-05-01 10:34 | 22.84676 | -59.34978 | 37957 ft | 429 kts | 218° |
| 2026-05-01 10:35 | 22.77374 | -59.40624 | 37968 ft | 429 kts | 218° |
| 2026-05-01 10:35 | 22.72508 | -59.44380 | 37970 ft | 429 kts | 218° |
| 2026-05-01 10:36 | 22.65213 | -59.50011 | 37954 ft | 429 kts | 218° |
| 2026-05-01 10:37 | 22.60372 | -59.53741 | 37966 ft | 429 kts | 219° |
| 2026-05-01 10:37 | 22.53080 | -59.59355 | 37956 ft | 429 kts | 219° |
| 2026-05-01 10:38 | 22.48233 | -59.63082 | 37968 ft | 428 kts | 218° |
| 2026-05-01 10:38 | 22.43369 | -59.66818 | 37960 ft | 428 kts | 218° |
| 2026-05-01 10:39 | 22.38527 | -59.70534 | 37963 ft | 428 kts | 219° |
| 2026-05-01 10:39 | 22.33659 | -59.74267 | 37955 ft | 429 kts | 219° |
| 2026-05-01 10:40 | 22.28790 | -59.77999 | 37961 ft | 429 kts | 219° |
| 2026-05-01 10:40 | 22.23954 | -59.81704 | 37956 ft | 428 kts | 219° |
| 2026-05-01 10:41 | 22.19083 | -59.85429 | 37956 ft | 428 kts | 219° |
| 2026-05-01 10:42 | 22.11781 | -59.91006 | 37962 ft | 428 kts | 219° |
| 2026-05-01 10:42 | 22.07738 | -59.94095 | 37964 ft | 428 kts | 219° |
| 2026-05-01 10:43 | 22.02080 | -59.98411 | 37969 ft | 428 kts | 219° |
| 2026-05-01 10:43 | 21.97139 | -60.02019 | 37964 ft | 430 kts | 216° |
| 2026-05-01 10:44 | 21.92926 | -60.04874 | 37952 ft | 430 kts | 215° |
| 2026-05-01 10:44 | 21.87839 | -60.08273 | 37965 ft | 430 kts | 215° |
| 2026-05-01 10:45 | 21.82763 | -60.11683 | 37966 ft | 430 kts | 216° |
| 2026-05-01 10:45 | 21.77698 | -60.15107 | 37956 ft | 429 kts | 216° |
| 2026-05-01 10:46 | 21.72642 | -60.18527 | 37957 ft | 430 kts | 216° |
| 2026-05-01 10:46 | 21.67577 | -60.21951 | 37961 ft | 429 kts | 216° |
| 2026-05-01 10:47 | 21.62514 | -60.25369 | 37956 ft | 430 kts | 216° |
| 2026-05-01 10:47 | 21.57483 | -60.28763 | 37969 ft | 429 kts | 216° |
| 2026-05-01 10:48 | 21.52426 | -60.32170 | 37965 ft | 429 kts | 216° |
| 2026-05-01 10:48 | 21.47373 | -60.35572 | 37956 ft | 428 kts | 216° |
| 2026-05-01 10:49 | 21.42313 | -60.38974 | 37974 ft | 428 kts | 216° |
| 2026-05-01 10:49 | 21.37257 | -60.42373 | 37959 ft | 429 kts | 216° |
| 2026-05-01 10:50 | 21.32201 | -60.45773 | 37959 ft | 428 kts | 216° |
| 2026-05-01 10:50 | 21.27187 | -60.49138 | 37977 ft | 428 kts | 216° |
| 2026-05-01 10:51 | 21.22141 | -60.52519 | 37977 ft | 427 kts | 216° |
| 2026-05-01 10:51 | 21.17098 | -60.55898 | 37960 ft | 428 kts | 216° |
| 2026-05-01 10:52 | 21.12054 | -60.59276 | 37958 ft | 427 kts | 216° |
| 2026-05-01 10:52 | 21.07045 | -60.62628 | 37977 ft | 427 kts | 215° |
| 2026-05-01 10:53 | 21.02003 | -60.65996 | 37958 ft | 427 kts | 216° |
| 2026-05-01 10:53 | 20.96960 | -60.69363 | 37959 ft | 429 kts | 216° |
| 2026-05-01 10:54 | 20.91907 | -60.72738 | 37978 ft | 427 kts | 216° |
| 2026-05-01 10:54 | 20.86864 | -60.76100 | 37959 ft | 426 kts | 216° |
| 2026-05-01 10:55 | 20.81823 | -60.79457 | 37966 ft | 426 kts | 216° |
| 2026-05-01 10:55 | 20.76791 | -60.82810 | 37977 ft | 426 kts | 216° |
| 2026-05-01 10:56 | 20.71747 | -60.86163 | 37978 ft | 427 kts | 216° |
| 2026-05-01 10:56 | 20.66734 | -60.89494 | 37966 ft | 427 kts | 216° |
| 2026-05-01 10:57 | 20.61694 | -60.92840 | 37961 ft | 426 kts | 216° |
| 2026-05-01 10:57 | 20.56664 | -60.96178 | 37968 ft | 426 kts | 216° |
| 2026-05-01 10:58 | 20.51627 | -60.99520 | 37977 ft | 426 kts | 216° |
| 2026-05-01 10:58 | 20.46594 | -61.02855 | 37971 ft | 426 kts | 216° |
| 2026-05-01 10:59 | 20.41558 | -61.06186 | 37977 ft | 426 kts | 215° |
| 2026-05-01 10:59 | 20.36526 | -61.09516 | 37977 ft | 425 kts | 215° |
| 2026-05-01 11:00 | 20.31538 | -61.12816 | 37977 ft | 425 kts | 216° |
| 2026-05-01 11:00 | 20.26519 | -61.16134 | 37977 ft | 425 kts | 215° |
| 2026-05-01 11:01 | 20.21491 | -61.19452 | 37962 ft | 425 kts | 216° |
| 2026-05-01 11:01 | 20.16456 | -61.22773 | 37977 ft | 425 kts | 215° |
| 2026-05-01 11:02 | 20.11432 | -61.26081 | 37979 ft | 424 kts | 215° |
| 2026-05-01 11:02 | 20.06438 | -61.29366 | 37977 ft | 424 kts | 215° |
| 2026-05-01 11:03 | 20.01386 | -61.32696 | 37977 ft | 424 kts | 215° |
| 2026-05-01 11:03 | 19.96392 | -61.35979 | 37977 ft | 424 kts | 215° |
| 2026-05-01 11:04 | 19.91371 | -61.39277 | 37963 ft | 424 kts | 215° |
| 2026-05-01 11:04 | 19.86347 | -61.42575 | 37962 ft | 424 kts | 215° |
| 2026-05-01 11:05 | 19.81324 | -61.45871 | 37973 ft | 424 kts | 215° |
| 2026-05-01 11:05 | 19.76300 | -61.49162 | 37976 ft | 424 kts | 215° |
| 2026-05-01 11:06 | 19.71309 | -61.52432 | 37979 ft | 424 kts | 215° |
| 2026-05-01 11:06 | 19.66255 | -61.55740 | 37962 ft | 424 kts | 215° |
| 2026-05-01 11:07 | 19.58747 | -61.60654 | 37978 ft | 424 kts | 215° |
| 2026-05-01 11:07 | 19.53717 | -61.63938 | 37977 ft | 424 kts | 215° |
| 2026-05-01 11:08 | 19.48684 | -61.67225 | 37974 ft | 424 kts | 215° |
| 2026-05-01 11:09 | 19.41135 | -61.72147 | 37977 ft | 425 kts | 215° |
| 2026-05-01 11:09 | 19.36119 | -61.75456 | 37967 ft | 423 kts | 220° |
| 2026-05-01 11:10 | 19.32122 | -61.79926 | 37683 ft | 421 kts | 236° |
| 2026-05-01 11:10 | 19.30441 | -61.82472 | 37433 ft | 422 kts | 238° |
| 2026-05-01 11:10 | 19.28787 | -61.85040 | 37184 ft | 422 kts | 238° |
| 2026-05-01 11:10 | 19.27159 | -61.87578 | 36941 ft | 423 kts | 238° |
| 2026-05-01 11:11 | 19.25505 | -61.90159 | 36703 ft | 424 kts | 238° |
| 2026-05-01 11:11 | 19.23846 | -61.92747 | 36443 ft | 424 kts | 238° |
| 2026-05-01 11:11 | 19.22190 | -61.95331 | 36154 ft | 425 kts | 238° |
| 2026-05-01 11:11 | 19.20535 | -61.97917 | 35611 ft | 425 kts | 238° |
| 2026-05-01 11:12 | 19.18871 | -62.00508 | 34935 ft | 428 kts | 238° |
| 2026-05-01 11:12 | 19.17190 | -62.03123 | 34238 ft | 431 kts | 238° |
| 2026-05-01 11:12 | 19.15496 | -62.05758 | 33517 ft | 434 kts | 238° |
| 2026-05-01 11:12 | 19.13807 | -62.08382 | 32789 ft | 437 kts | 237° |
| 2026-05-01 11:13 | 19.12085 | -62.11056 | 32025 ft | 441 kts | 237° |
| 2026-05-01 11:13 | 19.10364 | -62.13730 | 31481 ft | 439 kts | 237° |
| 2026-05-01 11:13 | 19.08652 | -62.16384 | 30977 ft | 435 kts | 237° |
| 2026-05-01 11:13 | 19.06951 | -62.19023 | 30446 ft | 432 kts | 237° |
| 2026-05-01 11:14 | 19.05262 | -62.21643 | 29914 ft | 429 kts | 237° |
| 2026-05-01 11:14 | 19.03586 | -62.24243 | 29371 ft | 427 kts | 237° |
| 2026-05-01 11:14 | 19.01915 | -62.26832 | 28828 ft | 425 kts | 237° |
| 2026-05-01 11:14 | 19.00256 | -62.29402 | 28287 ft | 422 kts | 237° |
| 2026-05-01 11:15 | 18.98603 | -62.31963 | 27729 ft | 420 kts | 237° |
| 2026-05-01 11:15 | 18.96962 | -62.34503 | 27210 ft | 417 kts | 237° |
| 2026-05-01 11:15 | 18.95331 | -62.37029 | 26662 ft | 415 kts | 237° |
| 2026-05-01 11:15 | 18.93706 | -62.39542 | 26110 ft | 413 kts | 237° |
| 2026-05-01 11:16 | 18.92092 | -62.42038 | 25578 ft | 410 kts | 237° |
| 2026-05-01 11:16 | 18.90490 | -62.44513 | 25046 ft | 407 kts | 237° |
| 2026-05-01 11:16 | 18.88921 | -62.46938 | 24515 ft | 404 kts | 237° |
| 2026-05-01 11:16 | 18.87338 | -62.49383 | 23972 ft | 402 kts | 237° |
| 2026-05-01 11:17 | 18.85770 | -62.51804 | 23458 ft | 398 kts | 237° |
| 2026-05-01 11:17 | 18.84207 | -62.54214 | 22932 ft | 395 kts | 237° |
| 2026-05-01 11:17 | 18.82659 | -62.56603 | 22407 ft | 392 kts | 237° |
| 2026-05-01 11:17 | 18.81127 | -62.58966 | 21884 ft | 389 kts | 236° |
| 2026-05-01 11:18 | 18.79603 | -62.61316 | 21371 ft | 386 kts | 236° |
| 2026-05-01 11:18 | 18.78094 | -62.63640 | 20853 ft | 382 kts | 236° |
| 2026-05-01 11:18 | 18.76602 | -62.65943 | 20344 ft | 379 kts | 236° |
| 2026-05-01 11:18 | 18.75117 | -62.68228 | 19845 ft | 376 kts | 236° |
| 2026-05-01 11:19 | 18.73647 | -62.70494 | 19350 ft | 373 kts | 236° |
| 2026-05-01 11:19 | 18.72187 | -62.72741 | 18856 ft | 370 kts | 236° |
| 2026-05-01 11:19 | 18.70748 | -62.74953 | 18369 ft | 368 kts | 236° |
| 2026-05-01 11:19 | 18.69304 | -62.77172 | 17880 ft | 365 kts | 236° |
| 2026-05-01 11:20 | 18.67867 | -62.79379 | 17378 ft | 363 kts | 236° |
| 2026-05-01 11:20 | 18.66440 | -62.81568 | 16890 ft | 361 kts | 236° |
| 2026-05-01 11:20 | 18.65022 | -62.83747 | 16396 ft | 359 kts | 236° |
| 2026-05-01 11:20 | 18.63612 | -62.85913 | 15900 ft | 357 kts | 236° |
| 2026-05-01 11:21 | 18.62211 | -62.88064 | 15403 ft | 355 kts | 236° |
| 2026-05-01 11:21 | 18.60817 | -62.90203 | 14909 ft | 353 kts | 236° |
| 2026-05-01 11:21 | 18.59433 | -62.92326 | 14438 ft | 350 kts | 236° |
| 2026-05-01 11:21 | 18.58058 | -62.94434 | 13966 ft | 348 kts | 236° |
| 2026-05-01 11:22 | 18.56691 | -62.96529 | 13485 ft | 346 kts | 236° |
| 2026-05-01 11:22 | 18.55334 | -62.98608 | 13003 ft | 344 kts | 236° |
| 2026-05-01 11:22 | 18.53987 | -63.00669 | 12555 ft | 340 kts | 236° |
| 2026-05-01 11:22 | 18.52661 | -63.02693 | 12101 ft | 338 kts | 236° |
| 2026-05-01 11:23 | 18.51342 | -63.04718 | 11650 ft | 333 kts | 236° |
| 2026-05-01 11:23 | 18.50042 | -63.06716 | 11187 ft | 331 kts | 236° |
| 2026-05-01 11:23 | 18.48741 | -63.08704 | 10914 ft | 323 kts | 236° |
| 2026-05-01 11:23 | 18.47497 | -63.10610 | 10829 ft | 310 kts | 236° |
| 2026-05-01 11:24 | 18.46294 | -63.12441 | 10722 ft | 297 kts | 235° |
| 2026-05-01 11:24 | 18.45135 | -63.14206 | 10599 ft | 289 kts | 236° |
| 2026-05-01 11:24 | 18.42849 | -63.17673 | 9906 ft | 289 kts | 231° |
| 2026-05-01 11:25 | 18.41373 | -63.19096 | 9550 ft | 289 kts | 211° |
| 2026-05-01 11:25 | 18.37676 | -63.20741 | 8827 ft | 288 kts | 200° |
| 2026-05-01 11:25 | 18.35789 | -63.21465 | 8490 ft | 288 kts | 199° |
| 2026-05-01 11:26 | 18.33912 | -63.22189 | 8131 ft | 287 kts | 199° |
| 2026-05-01 11:26 | 18.30169 | -63.23650 | 7410 ft | 285 kts | 200° |
| 2026-05-01 11:26 | 18.28312 | -63.24379 | 7061 ft | 284 kts | 200° |
| 2026-05-01 11:27 | 18.26493 | -63.25093 | 6706 ft | 282 kts | 200° |
| 2026-05-01 11:27 | 18.24660 | -63.25814 | 6356 ft | 280 kts | 200° |
| 2026-05-01 11:27 | 18.22838 | -63.26531 | 6000 ft | 278 kts | 199° |
| 2026-05-01 11:27 | 18.21027 | -63.27241 | 5656 ft | 278 kts | 199° |
| 2026-05-01 11:28 | 18.19216 | -63.27949 | 5309 ft | 276 kts | 199° |
| 2026-05-01 11:28 | 18.17423 | -63.28654 | 4953 ft | 274 kts | 199° |
| 2026-05-01 11:28 | 18.15643 | -63.29356 | 4603 ft | 273 kts | 199° |
| 2026-05-01 11:29 | 18.12098 | -63.30709 | 3919 ft | 268 kts | 193° |
| 2026-05-01 11:29 | 18.10264 | -63.30868 | 3566 ft | 264 kts | 175° |
| 2026-05-01 11:29 | 18.06709 | -63.30359 | 3178 ft | 249 kts | 170° |
| 2026-05-01 11:30 | 18.05038 | -63.30052 | 3047 ft | 239 kts | 165° |
| 2026-05-01 11:30 | 18.03550 | -63.29392 | 2915 ft | 228 kts | 144° |
| 2026-05-01 11:30 | 18.02477 | -63.28223 | 2780 ft | 219 kts | 121° |
| 2026-05-01 11:30 | 18.01968 | -63.26759 | 2638 ft | 212 kts | 97° |
| 2026-05-01 11:31 | 18.01988 | -63.25226 | 2481 ft | 209 kts | 84° |
| 2026-05-01 11:31 | 18.02196 | -63.23723 | 2257 ft | 205 kts | 81° |
| 2026-05-01 11:31 | 18.02424 | -63.22288 | 1977 ft | 193 kts | 81° |
| 2026-05-01 11:31 | 18.02633 | -63.20951 | 1691 ft | 183 kts | 82° |
| 2026-05-01 11:32 | 18.02825 | -63.19675 | 1436 ft | 171 kts | 82° |
| 2026-05-01 11:32 | 18.03004 | -63.18480 | 1215 ft | 159 kts | 82° |
| 2026-05-01 11:32 | 18.03166 | -63.17368 | 1044 ft | 150 kts | 83° |
| 2026-05-01 11:32 | 18.03322 | -63.16286 | 839 ft | 150 kts | 82° |
| 2026-05-01 11:33 | 18.03424 | -63.15564 | 669 ft | 151 kts | 82° |
| 2026-05-01 11:33 | 18.03587 | -63.14480 | 499 ft | 150 kts | 81° |
| 2026-05-01 11:33 | 18.03738 | -63.13400 | 317 ft | 149 kts | 83° |
| 2026-05-01 11:33 | 18.03890 | -63.12330 | 172 ft | 149 kts | 83° |
| 2026-05-01 11:34 | 18.04082 | -63.10964 | 32 ft | 123 kts | 81° |
| 2026-05-01 11:34 | 18.04151 | -63.10491 | 32 ft | 71 kts | 81° |
| 2026-05-01 11:34 | 18.04202 | -63.10127 | 31 ft | 40 kts | 81° |
| 2026-05-01 11:34 | 18.04256 | -63.09936 | 31 ft | 20 kts | 50° |
| 2026-05-01 11:35 | 18.04257 | -63.09856 | 31 ft | 6 kts | 165° |
| 2026-05-01 11:35 | 18.04243 | -63.09872 | 30 ft | 7 kts | 241° |
| 2026-05-01 11:35 | 18.04221 | -63.09983 | 31 ft | 22 kts | 262° |
| 2026-05-01 11:35 | 18.04199 | -63.10145 | 31 ft | 23 kts | 261° |
| 2026-05-01 11:36 | 18.04174 | -63.10316 | 31 ft | 24 kts | 261° |
| 2026-05-01 11:36 | 18.04150 | -63.10490 | 32 ft | 25 kts | 262° |
| 2026-05-01 11:36 | 18.04123 | -63.10681 | 31 ft | 27 kts | 261° |
| 2026-05-01 11:36 | 18.04094 | -63.10882 | 31 ft | 29 kts | 262° |
| 2026-05-01 11:37 | 18.04062 | -63.11105 | 32 ft | 21 kts | 261° |
| 2026-05-01 11:37 | 18.04046 | -63.11241 | 31 ft | 16 kts | 276° |
| 2026-05-01 11:37 | 18.04124 | -63.11297 | 32 ft | 13 kts | 349° |
| 2026-05-01 11:37 | 18.04210 | -63.11316 | 32 ft | 10 kts | 332° |
| 2026-05-01 11:38 | 18.04255 | -63.11354 | 32 ft | 8 kts | 340° |
| 2026-05-01 11:38 | 18.04299 | -63.11359 | 32 ft | 3 kts | 352° |
| 2026-05-01 11:38 | 18.04309 | -63.11361 | 32 ft | 1 kts | 352° |
| 2026-05-01 11:38 | 18.04318 | -63.11362 | 32 ft | 2 kts | 352° |
| 2026-05-01 11:39 | 18.04327 | -63.11364 | 32 ft | 1 kts | 351° |
| 2026-05-01 11:39 | 18.04331 | -63.11364 | 32 ft | 0 kts | 351° |